x

Norfolk, Va (44059) Weather Station

6:50pm - Tue 9th Feb 2016 All times are EST. -5 hours from GMT.

  • Wind
    7mph, 13mph gusts
  • Air Temp 43°f
  • Sea Pressure 1002.9mb
  • Norfolk, Va
  • Norfolk, Va

More Historic Weather Station data

Upgrade to MSW Pro to gain access to the past 30 days of data for over 8000 Wavebouys and Weather Stations around the globe.

Join Pro

Comparision Forecast

View Surf forecast
   
Tue 02/09 6:50pm 7 13 mph 1002.9mb - 43f
6:40pm 7 13 mph 1002.7mb - 44f
6:30pm 9 18 mph 1002.6mb - 44f
6:20pm 7 13 mph 1002.4mb - 44f
6:10pm 7 11 mph 1002.2mb - 44f
6:00pm 4 9 mph 1002mb 45f 44f
5:50pm 7 18 mph 1001.8mb - 44f
5:40pm 7 13 mph 1001.7mb - 44f
5:30pm 7 16 mph 1001.5mb - 44f
5:20pm 7 11 mph 1001.3mb - 44f
5:10pm 7 13 mph 1001.2mb - 44f
5:00pm 7 13 mph 1001.2mb 45f 44f
4:50pm 11 18 mph 1001.1mb - 45f
4:40pm 7 16 mph 1001mb - 46f
4:30pm 9 16 mph 1000.9mb - 46f
4:20pm 9 18 mph 1000.7mb - 46f
4:10pm 9 16 mph 1000.6mb - 46f
4:00pm 11 18 mph 1000.5mb 45f 46f
3:50pm 11 20 mph 1000.2mb - 46f
3:40pm 9 13 mph 1000.1mb - 46f
3:30pm 7 18 mph 1000mb - 46f
3:20pm 9 18 mph 999.9mb - 46f
3:10pm 9 22 mph 999.7mb - 47f
3:00pm 11 18 mph 999.6mb 45f 46f
2:50pm 11 16 mph 999.6mb - 46f
2:40pm 9 18 mph 999.5mb - 46f
2:30pm 11 20 mph 999.4mb - 47f
2:20pm 11 20 mph 999.5mb - 47f
2:10pm 7 13 mph 999.5mb - 46f
2:00pm 11 20 mph 999.5mb 45f 46f
1:50pm 9 18 mph 999.6mb - 46f
1:40pm 11 25 mph 999.6mb - 46f
1:30pm 11 22 mph 999.5mb - 46f
1:20pm 9 16 mph 999.6mb - 45f
1:10pm 7 13 mph 999.8mb - 45f
1:00pm 9 16 mph 999.9mb 45f 45f
12:50pm 9 16 mph 1000.2mb - 45f
12:40pm 9 16 mph 1000.4mb - 45f
12:30pm 11 20 mph 1000.5mb - 45f
12:20pm 9 16 mph 1000.6mb - 46f
12:10pm 9 20 mph 1000.6mb - 45f
12:00pm 9 16 mph 1000.7mb 45f 45f
11:50am 9 16 mph 1000.7mb - 44f
11:40am 7 13 mph 1000.8mb - 43f
11:30am 7 11 mph 1000.9mb - 42f
11:20am 7 11 mph 1001mb - 42f
11:10am 7 11 mph 1001mb - 42f
11:00am 7 13 mph 1001.1mb 45f 42f
10:50am 7 11 mph 1001.1mb - 41f
10:40am 9 16 mph 1001.3mb - 41f
10:30am 9 16 mph 1001.2mb - 41f
10:20am 9 16 mph 1001.2mb - 40f
10:10am 7 13 mph 1001.2mb - 40f
10:00am 7 13 mph 1001.1mb 45f 40f
9:50am 7 11 mph 1001mb - 40f
9:40am 7 11 mph 1001mb - 39f
9:30am 7 11 mph 1000.7mb - 39f
9:20am 7 9 mph 1000.6mb - 39f
9:10am 7 9 mph 1000.8mb - 38f
9:00am 7 9 mph 1000.7mb 45f 38f
8:50am 7 9 mph 1000.8mb - 38f
8:40am 4 9 mph 1000.7mb - 38f
8:30am 4 9 mph 1000.7mb - 38f
8:20am 7 11 mph 1000.5mb - 38f
8:10am 7 16 mph 1000.4mb - 38f
8:00am 4 11 mph 1000.3mb 44f 39f
7:50am 4 7 mph 1000.3mb - 39f
7:40am 4 9 mph 1000.2mb - 38f
7:30am 4 9 mph 1000mb - 38f
7:20am 2 4 mph 999.9mb - 38f
7:10am 4 7 mph 999.9mb - 39f
7:00am 2 4 mph 999.7mb 45f 39f
6:50am 4 7 mph 999.6mb - 39f
6:40am 2 7 mph 999.6mb - 39f
6:30am 4 7 mph 999.5mb - 39f
6:20am 4 9 mph 999.6mb - 40f
6:10am 7 11 mph 999.6mb - 40f
6:00am 4 7 mph 999.5mb 45f 41f
5:50am 7 9 mph 999.4mb - 41f
5:40am 4 7 mph 999.4mb - 41f
5:30am 4 7 mph 999.5mb - 41f
5:20am 4
mph
999.6mb - 41f
5:10am 2 4 mph 999.5mb - 41f
5:00am 4
mph
999.6mb 45f 41f
4:50am 2 4 mph 999.6mb - 41f
4:40am 2 4 mph 999.5mb - 41f
4:30am 4 9 mph 999.6mb - 41f
4:20am 4 7 mph 999.6mb - 41f
4:10am 4 7 mph 999.4mb - 42f
4:00am 4 7 mph 999.3mb 45f 42f
3:50am 4
mph
999.2mb - 42f
3:40am 4
mph
999.6mb - 42f
3:30am 2 4 mph 999.7mb - 42f
3:20am  -  2 mph 999.7mb - 42f
3:10am 2 4 mph 999.4mb - 42f
3:00am 4
mph
999.7mb 45f 42f
2:50am 2 4 mph 999.8mb - 42f
2:40am 4 7 mph 999.5mb - 42f
2:30am 4 7 mph 999.5mb - 42f
2:20am 4 7 mph 999.7mb - 42f
2:10am 2 4 mph 1000.1mb - 42f
2:00am 2 4 mph 1000.3mb 45f 42f
1:50am 2 4 mph 1000.3mb - 42f
1:40am 4
mph
1000.3mb - 42f
1:30am 4
mph
1000.4mb - 42f
1:20am 4 7 mph 1000.3mb - 42f
1:10am 7
mph
1000.4mb - 42f
1:00am 4 7 mph 1000.5mb 45f 42f
12:50am  -  2 mph 1000.8mb - 42f
12:40am 2 4 mph 1001mb - 42f
12:30am 2 4 mph 1001.2mb - 42f
12:20am 4 7 mph 1001.6mb - 42f
12:10am 7 11 mph 1001.9mb - 42f
12:00am 7 11 mph 1002.2mb 45f 42f
Mon 02/08 11:50pm 9 18 mph 1002.3mb - 42f
11:40pm 7 9 mph 1002.3mb - 42f
11:30pm 4 7 mph 1002.3mb - 42f
11:20pm 7 11 mph 1002.5mb - 42f
11:10pm 7 11 mph 1002.5mb - 42f
11:00pm 9
mph
1002.7mb 45f 42f
10:50pm 9 11 mph 1002.8mb - 42f
10:40pm 7 11 mph 1002.7mb - 42f
10:30pm 9 11 mph 1003mb - 42f
10:10pm 9 11 mph 1003.4mb - 42f
10:00pm 9 11 mph 1003.6mb 45f 42f
9:50pm 9 11 mph 1003.9mb - 42f
9:40pm 9 11 mph 1004.1mb - 42f
9:30pm 9 11 mph 1004.2mb - 42f
9:20pm 9 11 mph 1004.3mb - 42f
9:10pm 9 11 mph 1004.4mb - 42f
9:00pm 9 13 mph 1004.5mb 45f 42f
8:50pm 9 11 mph 1004.6mb - 42f
8:40pm 9 11 mph 1004.7mb - 42f
8:30pm 9 11 mph 1004.9mb - 42f
8:20pm 7 11 mph 1005mb - 42f
8:10pm 9 11 mph 1005.1mb - 42f
8:00pm 9 13 mph 1005.2mb 45f 42f
7:50pm 7 11 mph 1005.2mb - 42f
7:40pm 7 9 mph 1005.3mb - 42f
7:30pm 7 9 mph 1005.5mb - 42f
7:20pm 9 11 mph 1005.6mb - 42f
7:10pm 9 13 mph 1005.4mb - 42f
7:00pm 9 13 mph 1005.1mb 45f 42f
6:50pm 11 13 mph 1005.1mb - 42f
6:40pm 9 16 mph 1005.2mb - 42f
6:30pm 9 13 mph 1005.3mb - 42f
6:20pm 9 13 mph 1005.3mb - 42f
6:10pm 11 13 mph 1005.4mb - 42f
6:00pm 11 16 mph 1005.3mb 45f 42f
5:50pm 11 13 mph 1005.4mb - 42f
5:40pm 11 16 mph 1005.4mb - 42f
5:30pm 11 16 mph 1005.4mb - 42f
5:20pm 11 16 mph 1005.4mb - 42f
5:10pm 9 13 mph 1005.3mb - 42f
5:00pm 11 13 mph 1005.4mb 45f 42f
4:50pm 11 16 mph 1005.4mb - 42f
4:40pm 11 13 mph 1005.3mb - 42f
4:30pm 11 13 mph 1005.3mb - 42f
4:10pm 11 13 mph 1005.3mb - 43f
4:00pm 11 13 mph 1005.4mb 46f 43f
3:50pm 9 11 mph 1005.4mb - 44f
3:40pm 7 11 mph 1005.2mb - 44f
3:30pm 7 11 mph 1004.9mb - 44f
3:20pm 7 11 mph 1004.9mb - 44f
3:10pm 4 9 mph 1005.2mb - 44f
3:00pm 4 9 mph 1005.2mb 47f 45f
2:50pm 4 7 mph 1005.1mb - 45f
2:40pm 2 4 mph 1005.4mb - 45f
2:30pm 2 7 mph 1005.5mb - 45f
2:20pm 4 7 mph 1005.2mb - 45f
2:10pm 2 4 mph 1005.4mb - 45f
2:00pm 2 4 mph 1005.5mb 46f 44f
1:50pm 4 7 mph 1005.6mb - 44f
1:40pm 7
mph
1005.8mb - 44f
1:30pm 4 9 mph 1005.7mb - 45f
1:20pm  -  4 mph 1005.5mb - 46f
1:10pm 2 4 mph 1005.4mb - 45f
1:00pm  -  4 mph 1005.5mb 46f 44f
12:50pm 2 4 mph 1005.6mb - 44f
12:40pm 2 4 mph 1005.8mb - 43f
12:30pm 4 7 mph 1006.2mb - 43f
12:20pm 2 7 mph 1006.5mb - 43f
12:10pm 2 7 mph 1006.6mb - 43f
12:00pm 4 9 mph 1006.9mb 45f 42f
11:50am 7 11 mph 1007.2mb - 42f
11:40am 4 9 mph 1007.5mb - 42f
11:30am 7 9 mph 1007.4mb - 42f
11:20am 7 9 mph 1007.5mb - 42f
11:10am 7 11 mph 1007.6mb - 42f
11:00am 9 11 mph 1007.8mb 44f 42f
10:50am 9 13 mph 1007.8mb - 42f
10:40am 9 16 mph 1007.9mb - 42f
10:30am 9 13 mph 1007.8mb - 42f
10:20am 7 11 mph 1007.5mb - 42f
10:10am 9 16 mph 1007.6mb - 41f
10:00am 11 16 mph 1007.5mb 44f 41f
9:50am 9 13 mph 1007.2mb - 41f
9:40am 9 13 mph 1007.3mb - 40f
9:30am 9 13 mph 1007.5mb - 40f
9:20am 9 13 mph 1007.5mb - 40f
9:10am 11 13 mph 1007.4mb - 39f
9:00am 13 18 mph 1007.4mb 44f 39f
8:50am 11 16 mph 1007.3mb - 39f
8:40am 11 16 mph 1007.5mb - 40f
8:30am 11 18 mph 1007.4mb - 39f
8:20am 11 18 mph 1007.1mb - 39f
8:10am 11 16 mph 1007.1mb - 40f
8:00am 11 16 mph 1007.3mb 44f 39f
7:50am 11 16 mph 1007.4mb - 39f
7:40am 11 18 mph 1007.4mb - 39f
7:30am 11 16 mph 1007mb - 39f
7:20am 11 13 mph 1006.7mb - 39f
7:10am 11 16 mph 1006.6mb - 39f
7:00am 11 16 mph 1006.5mb 44f 39f
6:50am 11 16 mph 1006.4mb - 39f
6:40am 13 18 mph 1006.2mb - 39f
6:30am 11 16 mph 1006.3mb - 39f
6:20am 11 16 mph 1006.2mb - 39f
6:10am 9 16 mph 1006.3mb - 40f
6:00am 9 13 mph 1006.4mb 44f 40f
5:50am 11 16 mph 1006.2mb - 40f
5:40am 11 16 mph 1006mb - 40f
5:30am 13 18 mph 1005.9mb - 41f
5:20am 13 18 mph 1005.7mb - 41f
5:10am 13 16 mph 1005.4mb - 41f
5:00am 13 20 mph 1005.1mb 44f 41f
4:50am 16 20 mph 1005mb - 41f
4:40am 16 18 mph 1004.9mb - 41f
4:30am 16 20 mph 1004.8mb - 41f
4:20am 13 20 mph 1004.5mb - 41f
4:10am 13 18 mph 1004.3mb - 41f
4:00am 16 22 mph 1004.3mb 45f 41f
3:50am 18 25 mph 1004.3mb - 41f
3:40am 18 25 mph 1004.1mb - 41f
3:30am 18 22 mph 1003.7mb - 41f
3:20am 18 25 mph 1003.5mb - 41f
3:10am 18 25 mph 1003.5mb - 41f
3:00am 18 22 mph 1003.6mb 45f 41f
2:50am 18 25 mph 1003.6mb - 41f
2:40am 18 22 mph 1003.5mb - 41f
2:30am 18 25 mph 1003.5mb - 41f
2:20am 18 22 mph 1003.5mb - 40f
2:10am 18 25 mph 1003.4mb - 41f
2:00am 18 25 mph 1003.2mb 45f 41f
1:50am 18 22 mph 1003mb - 41f
1:40am 20 25 mph 1003mb - 41f
1:30am 18 25 mph 1003.1mb - 41f
1:20am 20 27 mph 1003.3mb - 42f
1:10am 20 27 mph 1003.4mb - 42f
1:00am 20 27 mph 1003.5mb 45f 42f
12:50am 20 27 mph 1003.6mb - 42f
12:40am 20 29 mph 1003.7mb - 41f
12:30am 22 31 mph 1003.8mb - 41f
12:20am 22 34 mph 1003.9mb - 41f
12:10am 20 27 mph 1004mb - 41f
12:00am 18 27 mph 1004.2mb 45f 41f
Sun 02/07 11:50pm 20 31 mph 1004.5mb - 41f
11:40pm 20 29 mph 1004.6mb - 41f
11:30pm 20 27 mph 1004.9mb - 41f
11:20pm 20 29 mph 1005.2mb - 41f
11:10pm 22 31 mph 1005.5mb - 40f
11:00pm 20 31 mph 1005.6mb 45f 40f
10:50pm 20 27 mph 1005.7mb - 40f
10:40pm 20 31 mph 1005.7mb - 40f
10:30pm 20 27 mph 1005.8mb - 40f
10:20pm 20 29 mph 1006mb - 40f
10:10pm 20 29 mph 1006.1mb - 40f
10:00pm 20 27 mph 1006.4mb 45f 40f
9:50pm 20 29 mph 1006.5mb - 40f
9:40pm 20 29 mph 1006.8mb - 40f
9:30pm 20 25 mph 1006.8mb - 40f
9:20pm 18 25 mph 1006.9mb - 40f
9:10pm 20 27 mph 1007.2mb - 40f
9:00pm 20 27 mph 1007.3mb 45f 40f
8:50pm 20 29 mph 1007.5mb - 40f
8:40pm 18 25 mph 1007.4mb - 40f
8:30pm 18 27 mph 1007.4mb - 40f
8:20pm 20 27 mph 1007.4mb - 40f
8:10pm 20 27 mph 1007.5mb - 41f
8:00pm 22 31 mph 1007.6mb 45f 41f
7:50pm 20 29 mph 1007.7mb - 41f
7:40pm 20 29 mph 1007.9mb - 41f
7:30pm 20 27 mph 1008mb - 41f
7:20pm 18 29 mph 1008.2mb - 41f
7:10pm 18 29 mph 1008.3mb - 41f
7:00pm 20 31 mph 1008.4mb 45f 41f
6:50pm 20 31 mph 1008.7mb - 41f
6:40pm 20 31 mph 1008.7mb - 41f
6:30pm 20 29 mph 1008.5mb - 41f
6:20pm 20 29 mph 1008.8mb - 41f
6:10pm 20 29 mph 1008.9mb - 41f
6:00pm 20 29 mph 1008.9mb 45f 41f
5:50pm 20 31 mph 1009.1mb - 41f
5:40pm 25 34 mph 1009.2mb - 41f
5:30pm 25 36 mph 1009.6mb - 41f
5:20pm 22 31 mph 1010mb - 41f
5:10pm 22 29 mph 1010.2mb - 41f
5:00pm 22 31 mph 1010.2mb 46f 41f
4:50pm 22 29 mph 1010.3mb - 41f
4:40pm 20 29 mph 1010.6mb - 41f
4:30pm 20 29 mph 1010.7mb - 41f
4:20pm 20 29 mph 1010.7mb - 41f
4:10pm 20 29 mph 1010.8mb - 41f
4:00pm 22 29 mph 1010.7mb 46f 40f
3:50pm 20 31 mph 1010.8mb - 40f
3:40pm 22 31 mph 1011mb - 40f
3:30pm 18 31 mph 1011.2mb - 40f
3:20pm 18 27 mph 1011.7mb - 40f
3:10pm 18 27 mph 1012mb - 40f
3:00pm 20 27 mph 1012mb 46f 40f
2:50pm 20 29 mph 1012.1mb - 40f
2:40pm 18 25 mph 1012.2mb - 40f
2:30pm 20 27 mph 1012.4mb - 40f
2:20pm 16 22 mph 1012.2mb - 40f
2:10pm 20 29 mph 1012.4mb - 40f
2:00pm 18 27 mph 1012.5mb 46f 40f
1:50pm 16 25 mph 1012.6mb - 40f
1:40pm 18 25 mph 1012.7mb - 40f
1:30pm 16 25 mph 1012.6mb - 41f
1:20pm 13 22 mph 1012.8mb - 41f
1:10pm 16 25 mph 1012.6mb - 40f
1:00pm 18 27 mph 1012.5mb 46f 41f
12:50pm 18 27 mph 1013.3mb - 41f
12:40pm 16 25 mph 1013.9mb - 40f
12:30pm 16 22 mph 1015mb - 41f
12:20pm 16 22 mph 1015.6mb - 41f
12:10pm 16 22 mph 1016.5mb - 41f
12:00pm 13 20 mph 1016.5mb 46f 41f
11:50am 16 25 mph 1016.3mb - 41f
11:40am 13 20 mph 1016.6mb - 40f
11:30am 16 25 mph 1017.1mb - 40f
11:20am 13 20 mph 1017.7mb - 40f
11:10am 13 20 mph 1018mb - 40f
11:00am 16 25 mph 1018.1mb 46f 40f
10:50am 13 22 mph 1017.8mb - 40f
10:40am 13 20 mph 1017.8mb - 40f
10:30am 13 22 mph 1018mb - 40f
10:20am 16 20 mph 1017.7mb - 40f
10:10am 13 22 mph 1017.8mb - 40f
10:00am 13 20 mph 1017.7mb 46f 40f
9:50am 11 18 mph 1017.7mb - 40f
9:40am 13 18 mph 1018mb - 40f
9:30am 11 16 mph 1018.4mb - 40f
9:20am 13 20 mph 1018.2mb - 40f
9:10am 13 20 mph 1018mb - 40f
9:00am 11 18 mph 1017.9mb 46f 40f
8:50am 11 20 mph 1018.5mb - 40f
8:40am 9 16 mph 1018.8mb - 40f
8:30am 9 16 mph 1018.6mb - 40f
8:20am 11 16 mph 1018.6mb - 40f
8:10am 11 16 mph 1018.3mb - 39f
8:00am 11 16 mph 1018.8mb 46f 39f
7:50am 9 11 mph 1019mb - 39f
7:40am 9 16 mph 1019.1mb - 39f
7:30am 9 13 mph 1019mb - 39f
7:20am 7 11 mph 1019mb - 39f
7:10am 7 11 mph 1019.2mb - 39f
7:00am 7 11 mph 1019.2mb 46f 39f
6:50am 7 9 mph 1019.1mb - 38f
6:40am 7 9 mph 1019.4mb - 38f
6:30am 7 9 mph 1019.5mb - 38f
6:20am 4 7 mph 1019.7mb - 38f
6:10am 7 9 mph 1019.7mb - 38f
6:00am 7 9 mph 1020.1mb 46f 38f
5:50am 7 9 mph 1020.1mb - 38f
5:40am 7 9 mph 1020mb - 38f
5:30am 7 9 mph 1020.1mb - 38f
5:20am 4 7 mph 1020.3mb - 38f
5:10am 4 7 mph 1020.1mb - 38f
5:00am 7 9 mph 1019.7mb 46f 38f
4:50am 7 9 mph 1020mb - 38f
4:40am 7 9 mph 1020.6mb - 38f
4:30am 7 9 mph 1021.2mb - 38f
4:20am 7 9 mph 1021.6mb - 38f
4:10am 4 7 mph 1021.4mb - 38f
4:00am 4 7 mph 1021.6mb 46f 38f
3:50am 4 7 mph 1021.4mb - 38f
3:40am 4 7 mph 1021.3mb - 38f
3:30am 7 9 mph 1021.7mb - 38f
3:20am 7 9 mph 1021.2mb - 38f
3:10am 7 9 mph 1021.7mb - 38f
3:00am 7
mph
1022.1mb 46f 38f
2:50am 4 7 mph 1022.3mb - 38f
2:40am 4 7 mph 1022.1mb - 38f
2:30am 7
mph
1022.2mb - 38f
2:10am 4 7 mph 1023.2mb - 39f
2:00am 4 7 mph 1023.4mb 46f 38f
1:50am 4 7 mph 1023.2mb - 38f
1:40am 4
mph
1023.4mb - 38f
1:30am 4 7 mph 1023.5mb - 38f
1:20am 4
mph
1023.4mb - 38f
1:10am 4 7 mph 1023.4mb - 38f
1:00am 4 7 mph 1023.2mb 46f 37f
12:50am 2 4 mph 1023.2mb - 37f
12:40am 4 7 mph 1023.1mb - 38f
12:30am 4 7 mph 1023.1mb - 38f
12:20am 4
mph
1023.1mb - 38f
12:10am 4
mph
1023.3mb - 38f
12:00am 2 4 mph 1023.7mb 46f 38f
Sat 02/06 11:50pm 2 4 mph 1023.9mb - 38f
11:40pm  -  2 mph 1024.1mb - 37f
11:30pm 4
mph
1024.3mb - 38f
11:20pm 4 7 mph 1024.4mb - 38f
11:10pm 2 4 mph 1024.3mb - 38f
11:00pm 2
mph
1024.5mb 46f 38f
10:50pm  -  4 mph 1024.5mb - 38f
10:40pm 2
mph
1024.7mb - 38f
10:30pm 4 7 mph 1024.6mb - 38f
10:20pm 4 7 mph 1024.7mb - 38f
10:10pm 4 7 mph 1024.8mb - 38f
10:00pm 4 7 mph 1025mb 46f 38f
9:50pm 4 7 mph 1025.2mb - 38f
9:40pm 2 4 mph 1025.1mb - 38f
9:30pm 4 7 mph 1025mb - 38f
9:20pm 4 7 mph 1025.4mb - 38f
9:10pm 4
mph
1025.7mb - 38f
9:00pm 4
mph
1026.1mb 46f 38f
8:50pm 2
mph
1026.3mb - 38f
8:40pm 2 4 mph 1026.5mb - 38f
8:30pm 2
mph
1026.5mb - 38f
8:20pm 2 4 mph 1026.5mb - 38f
8:10pm 4 7 mph 1026.4mb - 38f
8:00pm 4 7 mph 1026.4mb 47f 38f
7:50pm 7
mph
1026.4mb - 39f
7:40pm 7 9 mph 1026.3mb - 39f
7:30pm 7 9 mph 1026.3mb - 39f
7:20pm 7 9 mph 1026.3mb - 39f
7:10pm 4 7 mph 1026.3mb - 40f
7:00pm 4 9 mph 1026.3mb 47f 40f
6:50pm 4 9 mph 1026.4mb - 40f
6:40pm 4 7 mph 1026.6mb - 40f
6:30pm 4
mph
1026.6mb - 40f
6:20pm 4
mph
1026.6mb - 40f
6:10pm 4 7 mph 1026.5mb - 40f
6:00pm 4
mph
1026.6mb 47f 40f
5:50pm 4 7 mph 1026.7mb - 40f
5:40pm 4 7 mph 1026.6mb - 41f
5:30pm 4 7 mph 1026.7mb - 41f
5:20pm 4 7 mph 1026.7mb - 42f
5:10pm 4 7 mph 1026.7mb - 42f
5:00pm 4 9 mph 1026.7mb 48f 43f
4:50pm 4 7 mph 1026.5mb - 43f
4:40pm 4 9 mph 1026.4mb - 43f
4:30pm 4 7 mph 1026.3mb - 43f
4:20pm 4 9 mph 1026.2mb - 43f
4:10pm 4 9 mph 1026.1mb - 43f
4:00pm 4 9 mph 1026.2mb 48f 43f
3:50pm 4 7 mph 1026.2mb - 43f
3:40pm 2 7 mph 1026.3mb - 43f
3:30pm 2 7 mph 1026.3mb - 43f
3:20pm 2 4 mph 1026.4mb - 43f
3:10pm 2 7 mph 1026.6mb - 42f
3:00pm 2 4 mph 1026.8mb 48f 42f
2:50pm 4 7 mph 1026.6mb - 41f
2:40pm 2 7 mph 1026.7mb - 41f
2:30pm 4 7 mph 1026.7mb - 41f
2:20pm 7 9 mph 1026.9mb - 41f
2:10pm 7 9 mph 1026.9mb - 41f
2:00pm 7 11 mph 1027.1mb 48f 41f
1:50pm 7 9 mph 1027.2mb - 41f
1:40pm 7 9 mph 1027.4mb - 41f
1:30pm 9 11 mph 1027.7mb - 41f
1:20pm 9 11 mph 1027.9mb - 41f
1:10pm 9 11 mph 1028mb - 41f
1:00pm 7 11 mph 1028.3mb 48f 41f
12:50pm 7 9 mph 1028.5mb - 41f
12:40pm 4 7 mph 1028.9mb - 41f
12:30pm 4 7 mph 1029mb - 41f
12:20pm 4 7 mph 1029.3mb - 41f
12:10pm 4 7 mph 1029.6mb - 41f
12:00pm 4
mph
1029.7mb 47f 41f
11:50am 2
mph
1029.9mb - 41f
11:40am  -  4 mph 1030.1mb - 41f
11:30am 4 7 mph 1030.3mb - 40f
11:20am 2 4 mph 1030.5mb - 41f
11:10am 2 4 mph 1030.5mb - 41f
11:00am 2
mph
1030.8mb 47f 41f
10:50am  -  mph 1030.9mb - 41f
10:40am  -  2 mph 1031.1mb - 40f
10:30am 2
mph
1031mb - 40f
10:20am 2 4 mph 1031mb - 40f
10:10am  -  4 mph 1030.9mb - 40f
10:00am 2 7 mph 1031mb 46f 39f
9:50am 2 7 mph 1030.9mb - 39f
9:40am 2 4 mph 1030.8mb - 39f
9:30am 2 7 mph 1030.8mb - 39f
9:20am 2 7 mph 1030.8mb - 38f
9:10am 4 7 mph 1030.9mb - 38f
9:00am 4 7 mph 1031mb 45f 38f
8:50am 2 7 mph 1031mb - 38f
8:40am 2
mph
1030.8mb - 38f
8:30am  -  2 mph 1030.8mb - 38f
8:20am  -  2 mph 1031mb - 38f
8:10am  -  2 mph 1031.1mb - 37f
8:00am 2
mph
1030.8mb 45f 37f
7:50am 2 4 mph 1030.7mb - 37f
7:40am 4
mph
1030.6mb - 37f
7:30am 4
mph
1030.6mb - 36f
7:20am 2 4 mph 1030.5mb - 36f
7:10am 4
mph
1030.5mb - 36f
7:00am 4
mph
1030.5mb 45f 36f
6:50am 4
mph
1030.4mb - 36f
6:40am 4
mph
1030.2mb - 36f
6:30am 4
mph
1030.1mb - 36f
6:20am 4
mph
1030mb - 36f
6:10am 2 4 mph 1029.9mb - 36f
6:00am 4
mph
1029.8mb 46f 36f
5:50am 4
mph
1029.7mb - 36f
5:40am 4
mph
1029.5mb - 36f
5:30am 4 7 mph 1029.4mb - 36f
5:20am 4 7 mph 1029.4mb - 36f
5:10am 4 7 mph 1029.3mb - 36f
5:00am 4 7 mph 1029.3mb 46f 36f
4:50am 4
mph
1029.3mb - 36f
4:40am 4 7 mph 1029.2mb - 37f
4:30am 4 7 mph 1029.2mb - 37f
4:20am 4 7 mph 1029.2mb - 37f
4:10am 4 7 mph 1029.2mb - 37f
4:00am 7
mph
1029.1mb 46f 37f
3:50am 4 7 mph 1028.9mb - 37f
3:40am 4 7 mph 1028.8mb - 37f
3:30am 4 7 mph 1028.9mb - 37f
3:20am 4 7 mph 1028.8mb - 37f
3:10am 4 7 mph 1028.8mb - 37f
3:00am 4
mph
1028.9mb 47f 37f
2:50am 4
mph
1028.9mb - 37f
2:40am 4 7 mph 1028.9mb - 37f
2:30am 4 7 mph 1028.9mb - 37f
2:20am 4 7 mph 1028.9mb - 37f
2:10am 4 7 mph 1028.9mb - 38f
2:00am 4 7 mph 1028.9mb 47f 38f
1:50am 4 7 mph 1028.9mb - 38f
1:40am 4 7 mph 1028.8mb - 38f
1:30am 7
mph
1028.7mb - 38f
1:20am 7
mph
1028.6mb - 38f
1:10am 7
mph
1028.6mb - 38f
1:00am 7 9 mph 1028.6mb 47f 38f